Time;durP1;ratioP1;P1;durP2;ratioP2;P2;SDS_P1;SDS_P2;PMS_P1;PMS_P2;Temp;Humidity;BMP_temperature;BMP_pressure;BME280_temperature;BME280_humidity;BME280_pressure;Samples;Min_cycle;Max_cycle;Signal;HPM_P1;HPM_P2
2022/03/01 00:01:49;;;;;;;;;;;3.40;99.90;;;;;;5053717;28;19924;-56
2022/03/01 00:04:15;;;;;;;;;;;3.40;99.90;;;;;;5053796;28;19978;-54
2022/03/01 00:06:42;;;;;;;;;;;3.40;99.90;;;;;;5053027;28;19928;-53
2022/03/01 00:09:08;;;;;;;;;;;3.40;99.90;;;;;;5053633;28;19928;-57
2022/03/01 00:11:35;;;;;;;;;;;3.50;99.90;;;;;;5053617;28;19921;-56
2022/03/01 00:14:03;;;;;;;;;;;3.60;99.90;;;;;;5052871;28;19921;-55
2022/03/01 00:16:30;;;;;;;;;;;3.60;99.90;;;;;;5053496;28;19924;-57
2022/03/01 00:18:57;;;;;;;;;;;3.60;99.90;;;;;;5053313;28;19928;-56
2022/03/01 00:21:24;;;;;;;;;;;3.60;99.90;;;;;;5053060;28;19921;-54
2022/03/01 00:23:50;;;;;;;;;;;3.60;99.90;;;;;;5053376;28;20341;-57
2022/03/01 00:26:17;;;;;;;;;;;3.60;99.90;;;;;;5053007;28;19920;-56
2022/03/01 00:28:43;;;;;;;;;;;3.60;99.90;;;;;;5053109;28;20016;-57
2022/03/01 00:31:12;;;;;;;;;;;3.60;99.90;;;;;;5053449;28;19920;-56
2022/03/01 00:33:38;;;;;;;;;;;3.60;99.90;;;;;;5053197;28;19998;-56
2022/03/01 00:36:05;;;;;;;;;;;3.60;99.90;;;;;;5052749;28;20376;-55
2022/03/01 00:38:32;;;;;;;;;;;3.60;99.90;;;;;;5053317;28;19967;-56
2022/03/01 00:40:58;;;;;;;;;;;3.60;99.90;;;;;;5053150;28;20375;-55
2022/03/01 00:43:25;;;;;;;;;;;3.50;99.90;;;;;;5053155;28;20107;-55
2022/03/01 00:45:52;;;;;;;;;;;3.50;99.90;;;;;;5052762;28;19924;-57
2022/03/01 00:48:21;;;;;;;;;;;3.50;99.90;;;;;;5052876;28;19925;-56
2022/03/01 00:50:48;;;;;;;;;;;3.40;99.90;;;;;;5052777;28;19991;-55
2022/03/01 00:53:14;;;;;;;;;;;3.40;99.90;;;;;;5052482;28;19921;-54
2022/03/01 00:55:41;;;;;;;;;;;3.40;99.90;;;;;;5052709;28;19921;-56
2022/03/01 00:58:08;;;;;;;;;;;3.30;99.90;;;;;;5052501;28;19966;-57
2022/03/01 01:00:34;;;;;;;;;;;3.30;99.90;;;;;;5052573;28;20470;-56
2022/03/01 01:03:01;;;;;;;;;;;3.40;99.90;;;;;;5052731;28;19920;-57
2022/03/01 01:05:29;;;;;;;;;;;3.30;99.90;;;;;;5053470;28;20325;-57
2022/03/01 01:07:56;;;;;;;;;;;3.30;99.90;;;;;;5052008;28;20375;-54
2022/03/01 01:10:22;;;;;;;;;;;3.30;99.90;;;;;;5051991;28;19921;-58
2022/03/01 01:12:49;;;;;;;;;;;3.20;99.90;;;;;;5052597;28;19967;-56
2022/03/01 01:15:17;;;;;;;;;;;3.20;99.90;;;;;;5051777;28;19986;-54
2022/03/01 01:17:43;;;;;;;;;;;3.20;99.90;;;;;;5052166;28;20379;-56
2022/03/01 01:20:10;;;;;;;;;;;3.30;99.90;;;;;;5052473;28;19920;-57
2022/03/01 01:22:41;;;;;;;;;;;3.30;99.90;;;;;;5052316;28;19966;-56
2022/03/01 01:25:09;;;;;;;;;;;3.30;99.90;;;;;;5052076;28;19927;-53
2022/03/01 01:27:36;;;;;;;;;;;3.30;99.90;;;;;;5052168;28;19925;-56
2022/03/01 01:30:02;;;;;;;;;;;3.30;99.90;;;;;;5052268;28;20008;-57
2022/03/01 01:32:29;;;;;;;;;;;3.40;99.90;;;;;;5051800;28;19978;-57
2022/03/01 01:34:55;;;;;;;;;;;3.40;99.90;;;;;;5051934;28;19928;-55
2022/03/01 01:37:22;;;;;;;;;;;3.50;99.90;;;;;;5051781;28;19990;-57
2022/03/01 01:39:50;;;;;;;;;;;3.40;99.90;;;;;;5052138;28;19921;-56
2022/03/01 01:42:17;;;;;;;;;;;3.40;99.90;;;;;;5051711;28;20330;-57
2022/03/01 01:44:44;;;;;;;;;;;3.40;99.90;;;;;;5051711;28;19921;-57
2022/03/01 01:47:11;;;;;;;;;;;3.40;99.90;;;;;;5051581;28;20398;-56
2022/03/01 01:49:38;;;;;;;;;;;3.40;99.90;;;;;;5051685;28;19924;-57
2022/03/01 01:52:05;;;;;;;;;;;3.40;99.90;;;;;;5052022;28;19920;-57
2022/03/01 01:54:32;;;;;;;;;;;3.30;99.90;;;;;;5051690;28;19982;-54
2022/03/01 01:57:00;;;;;;;;;;;3.30;99.90;;;;;;5051742;28;19946;-52
2022/03/01 01:59:26;;;;;;;;;;;3.30;99.90;;;;;;5051894;28;19924;-57
2022/03/01 02:01:53;;;;;;;;;;;3.40;99.90;;;;;;5051828;28;19920;-57
2022/03/01 02:04:19;;;;;;;;;;;3.30;99.90;;;;;;5051298;28;19920;-53
2022/03/01 02:06:52;;;;;;;;;;;3.40;99.90;;;;;;5051261;28;20031;-54
2022/03/01 02:09:18;;;;;;;;;;;3.40;99.90;;;;;;5051514;28;19925;-55
2022/03/01 02:11:45;;;;;;;;;;;3.40;99.90;;;;;;5051196;28;19979;-57
2022/03/01 02:14:13;;;;;;;;;;;3.40;99.90;;;;;;5051636;28;19921;-57
2022/03/01 02:16:40;;;;;;;;;;;3.40;99.90;;;;;;5051342;28;19920;-56
2022/03/01 02:19:07;;;;;;;;;;;3.40;99.90;;;;;;5051454;28;20462;-55
2022/03/01 02:21:35;;;;;;;;;;;3.40;99.90;;;;;;5054884;28;19921;-52
2022/03/01 02:24:02;;;;;;;;;;;3.30;99.90;;;;;;5055500;28;19921;-54
2022/03/01 02:26:28;;;;;;;;;;;3.40;99.90;;;;;;5054884;28;20383;-55
2022/03/01 02:28:55;;;;;;;;;;;3.40;99.90;;;;;;5055615;28;19926;-56
2022/03/01 02:31:22;;;;;;;;;;;3.40;99.90;;;;;;5055646;28;20299;-55
2022/03/01 02:33:48;;;;;;;;;;;3.50;99.90;;;;;;5055036;28;19925;-56
2022/03/01 02:36:15;;;;;;;;;;;3.50;99.90;;;;;;5054873;28;19920;-56
2022/03/01 02:38:43;;;;;;;;;;;3.50;99.90;;;;;;5055040;28;19947;-55
2022/03/01 02:41:10;;;;;;;;;;;3.60;99.90;;;;;;5055029;28;19920;-56
2022/03/01 02:43:37;;;;;;;;;;;3.60;99.90;;;;;;5054686;28;20371;-56
2022/03/01 02:46:03;;;;;;;;;;;3.70;99.90;;;;;;5054664;28;19920;-56
2022/03/01 02:48:30;;;;;;;;;;;3.70;99.90;;;;;;5055014;28;20268;-56
2022/03/01 02:50:56;;;;;;;;;;;3.80;99.90;;;;;;5054667;28;19928;-54
2022/03/01 02:53:23;;;;;;;;;;;3.90;99.90;;;;;;5054303;28;20280;-53
2022/03/01 02:55:51;;;;;;;;;;;3.90;99.90;;;;;;5054163;28;19950;-54
2022/03/01 02:58:17;;;;;;;;;;;4.00;99.90;;;;;;5054368;28;19969;-55
2022/03/01 03:00:44;;;;;;;;;;;4.00;99.90;;;;;;5054429;28;19982;-55
2022/03/01 03:03:11;;;;;;;;;;;3.90;99.90;;;;;;5054390;28;19964;-56
2022/03/01 03:05:37;;;;;;;;;;;3.90;99.90;;;;;;5054313;28;19978;-56
2022/03/01 03:08:04;;;;;;;;;;;4.00;99.90;;;;;;5054334;28;19920;-56
2022/03/01 03:10:33;;;;;;;;;;;3.90;99.90;;;;;;5054799;28;19921;-54
2022/03/01 03:13:01;;;;;;;;;;;3.90;99.90;;;;;;5054179;28;19960;-54
2022/03/01 03:15:27;;;;;;;;;;;3.90;99.90;;;;;;5054483;28;19924;-56
2022/03/01 03:17:54;;;;;;;;;;;3.90;99.90;;;;;;5053829;28;19920;-57
2022/03/01 03:20:21;;;;;;;;;;;3.90;99.90;;;;;;5054397;28;19989;-56
2022/03/01 03:22:47;;;;;;;;;;;3.80;99.90;;;;;;5053961;28;19975;-57
2022/03/01 03:25:14;;;;;;;;;;;3.80;99.90;;;;;;5054680;28;19928;-56
2022/03/01 03:27:41;;;;;;;;;;;3.80;99.90;;;;;;5055110;28;19978;-58
2022/03/01 03:30:10;;;;;;;;;;;3.80;99.90;;;;;;5054137;28;20407;-59
2022/03/01 03:32:37;;;;;;;;;;;3.80;99.90;;;;;;5053675;28;19998;-58
2022/03/01 03:35:04;;;;;;;;;;;3.80;99.90;;;;;;5055962;28;19951;-57
2022/03/01 03:37:31;;;;;;;;;;;3.80;99.90;;;;;;5053839;28;19928;-57
2022/03/01 03:39:57;;;;;;;;;;;3.80;99.90;;;;;;5053704;28;19975;-57
2022/03/01 03:42:24;;;;;;;;;;;3.90;99.90;;;;;;5053854;28;19990;-57
2022/03/01 03:44:51;;;;;;;;;;;3.90;99.90;;;;;;5053423;28;19924;-54
2022/03/01 03:47:18;;;;;;;;;;;3.80;99.90;;;;;;5053030;28;20402;-57
2022/03/01 03:49:45;;;;;;;;;;;3.90;99.90;;;;;;5053142;28;19978;-56
2022/03/01 03:52:11;;;;;;;;;;;3.90;99.90;;;;;;5053246;28;19920;-57
2022/03/01 03:54:38;;;;;;;;;;;3.90;99.90;;;;;;5052974;28;20387;-54
2022/03/01 03:57:08;;;;;;;;;;;3.90;99.90;;;;;;5053267;28;19928;-54
2022/03/01 03:59:35;;;;;;;;;;;4.00;99.90;;;;;;5053321;28;20312;-55
2022/03/01 04:02:01;;;;;;;;;;;4.00;99.90;;;;;;5053806;28;19921;-56
2022/03/01 04:04:29;;;;;;;;;;;4.00;99.90;;;;;;5052666;28;19928;-55
2022/03/01 04:06:56;;;;;;;;;;;3.90;99.90;;;;;;5053343;28;19924;-57
2022/03/01 04:09:22;;;;;;;;;;;3.90;99.90;;;;;;5052812;28;20425;-55
2022/03/01 04:11:49;;;;;;;;;;;3.90;99.90;;;;;;5053186;28;19974;-54
2022/03/01 04:14:17;;;;;;;;;;;3.90;99.90;;;;;;5052932;28;19926;-57
2022/03/01 04:16:44;;;;;;;;;;;3.90;99.90;;;;;;5053175;28;19920;-57
2022/03/01 04:19:11;;;;;;;;;;;3.80;99.90;;;;;;5053119;28;19975;-56
2022/03/01 04:21:39;;;;;;;;;;;3.90;99.90;;;;;;5053247;28;19924;-55
2022/03/01 04:24:06;;;;;;;;;;;3.90;99.90;;;;;;5052677;28;19920;-55
2022/03/01 04:26:33;;;;;;;;;;;3.90;99.90;;;;;;5052814;28;20252;-57
2022/03/01 04:28:59;;;;;;;;;;;3.90;99.90;;;;;;5052738;28;19974;-56
2022/03/01 04:31:26;;;;;;;;;;;3.80;99.90;;;;;;5052341;28;20370;-55
2022/03/01 04:33:54;;;;;;;;;;;3.80;99.90;;;;;;5052880;28;19929;-54
2022/03/01 04:36:20;;;;;;;;;;;3.80;99.90;;;;;;5052468;28;20003;-56
2022/03/01 04:38:48;;;;;;;;;;;3.70;99.90;;;;;;5052660;28;19948;-57
2022/03/01 04:41:15;;;;;;;;;;;3.70;99.90;;;;;;5052288;28;19921;-55
2022/03/01 04:43:41;;;;;;;;;;;3.70;99.90;;;;;;5051474;28;19974;-56
2022/03/01 04:46:08;;;;;;;;;;;3.70;99.90;;;;;;5052051;28;19925;-57
2022/03/01 04:48:34;;;;;;;;;;;3.70;99.90;;;;;;5052522;28;20276;-56
2022/03/01 04:51:01;;;;;;;;;;;3.70;99.90;;;;;;5052557;28;19951;-56
2022/03/01 04:53:27;;;;;;;;;;;3.70;99.90;;;;;;5052402;28;19928;-53
2022/03/01 04:55:55;;;;;;;;;;;3.70;99.90;;;;;;5052296;28;19928;-56
2022/03/01 04:58:22;;;;;;;;;;;3.60;99.90;;;;;;5052070;28;19921;-56
2022/03/01 05:00:48;;;;;;;;;;;3.60;99.90;;;;;;5052153;28;19925;-56
2022/03/01 05:03:15;;;;;;;;;;;3.60;99.90;;;;;;5052425;28;19921;-58
2022/03/01 05:05:41;;;;;;;;;;;3.60;99.90;;;;;;5051892;28;20375;-57
2022/03/01 05:08:08;;;;;;;;;;;3.60;99.90;;;;;;5052118;28;19966;-54
2022/03/01 05:10:35;;;;;;;;;;;3.60;99.90;;;;;;5051972;28;19974;-57
2022/03/01 05:13:03;;;;;;;;;;;3.60;99.90;;;;;;5052157;28;19927;-57
2022/03/01 05:15:30;;;;;;;;;;;3.60;99.90;;;;;;5052072;28;19927;-57
2022/03/01 05:17:57;;;;;;;;;;;3.50;99.90;;;;;;5052118;28;19970;-57
2022/03/01 05:20:25;;;;;;;;;;;3.50;99.90;;;;;;5052309;28;19924;-57
2022/03/01 05:22:52;;;;;;;;;;;3.60;99.90;;;;;;5052136;28;19927;-58
2022/03/01 05:25:20;;;;;;;;;;;3.60;99.90;;;;;;5052235;28;19921;-57
2022/03/01 05:27:49;;;;;;;;;;;3.60;99.90;;;;;;5051310;28;19924;-56
2022/03/01 05:30:18;;;;;;;;;;;3.70;99.90;;;;;;5051724;28;20391;-56
2022/03/01 05:32:46;;;;;;;;;;;3.70;99.90;;;;;;5051746;28;19970;-57
2022/03/01 05:35:13;;;;;;;;;;;3.70;99.90;;;;;;5051564;28;19921;-56
2022/03/01 05:37:40;;;;;;;;;;;3.60;99.90;;;;;;5051659;28;19924;-56
2022/03/01 05:40:08;;;;;;;;;;;3.70;99.90;;;;;;5051418;28;19924;-56
2022/03/01 05:42:35;;;;;;;;;;;3.60;99.90;;;;;;5050815;28;20334;-64
2022/03/01 05:45:01;;;;;;;;;;;3.60;99.90;;;;;;5054199;28;19920;-56
2022/03/01 05:47:29;;;;;;;;;;;3.60;99.90;;;;;;5051027;28;19924;-58
2022/03/01 05:49:56;;;;;;;;;;;3.60;99.90;;;;;;5051779;28;20303;-58
2022/03/01 05:52:23;;;;;;;;;;;3.60;99.90;;;;;;5051999;28;19924;-58
2022/03/01 05:54:50;;;;;;;;;;;3.50;99.90;;;;;;5050826;28;19922;-58
2022/03/01 05:57:16;;;;;;;;;;;3.50;99.90;;;;;;5052086;28;19998;-59
2022/03/01 05:59:43;;;;;;;;;;;3.50;99.90;;;;;;5052114;28;19924;-57
2022/03/01 06:02:10;;;;;;;;;;;3.50;99.90;;;;;;5051624;28;19924;-58
2022/03/01 06:04:37;;;;;;;;;;;3.50;99.90;;;;;;5051185;28;20345;-59
2022/03/01 06:07:04;;;;;;;;;;;3.50;99.90;;;;;;5050928;28;20373;-58
2022/03/01 06:09:30;;;;;;;;;;;3.50;99.90;;;;;;5051202;28;19928;-59
2022/03/01 06:11:57;;;;;;;;;;;3.50;99.90;;;;;;5051300;28;19920;-58
2022/03/01 06:14:23;;;;;;;;;;;3.50;99.90;;;;;;5051286;28;20145;-62
2022/03/01 06:16:50;;;;;;;;;;;3.50;99.90;;;;;;5050982;28;19925;-61
2022/03/01 06:19:16;;;;;;;;;;;3.40;99.90;;;;;;5050605;28;19920;-61
2022/03/01 06:21:44;;;;;;;;;;;3.40;99.90;;;;;;5050908;28;20001;-61
2022/03/01 06:24:11;;;;;;;;;;;3.40;99.90;;;;;;5050330;28;19924;-61
2022/03/01 06:26:38;;;;;;;;;;;3.40;99.90;;;;;;5050718;28;19966;-65
2022/03/01 06:29:05;;;;;;;;;;;3.40;99.90;;;;;;5050382;28;19928;-59
2022/03/01 06:31:32;;;;;;;;;;;3.40;99.90;;;;;;5051212;28;20291;-60
2022/03/01 06:33:58;;;;;;;;;;;3.40;99.90;;;;;;5050880;28;19982;-58
2022/03/01 06:36:25;;;;;;;;;;;3.40;99.90;;;;;;5049879;28;19920;-62
2022/03/01 06:38:53;;;;;;;;;;;3.40;99.90;;;;;;5050836;28;20371;-61
2022/03/01 06:41:20;;;;;;;;;;;3.40;99.90;;;;;;5050264;28;20437;-60
2022/03/01 06:43:47;;;;;;;;;;;3.40;99.90;;;;;;5050252;28;19925;-61
2022/03/01 06:46:14;;;;;;;;;;;3.50;99.90;;;;;;5050139;28;19921;-62
2022/03/01 06:48:40;;;;;;;;;;;3.50;99.90;;;;;;5050257;28;19924;-60
2022/03/01 06:51:07;;;;;;;;;;;3.50;99.90;;;;;;5050511;28;19920;-58
2022/03/01 06:53:34;;;;;;;;;;;3.60;99.90;;;;;;5050042;28;19921;-56
2022/03/01 06:56:02;;;;;;;;;;;3.60;99.90;;;;;;5050054;28;20383;-62
2022/03/01 06:58:29;;;;;;;;;;;3.60;99.90;;;;;;5050239;28;19921;-63
2022/03/01 07:00:56;;;;;;;;;;;3.70;99.90;;;;;;5050505;28;19921;-62
2022/03/01 07:03:23;;;;;;;;;;;3.80;99.90;;;;;;5051531;28;19920;-62
2022/03/01 07:05:49;;;;;;;;;;;3.80;99.90;;;;;;5051246;28;19932;-59
2022/03/01 07:08:20;;;;;;;;;;;3.90;99.90;;;;;;5054660;28;19982;-60
2022/03/01 07:10:47;;;;;;;;;;;4.00;99.90;;;;;;5054947;28;20346;-63
2022/03/01 07:13:14;;;;;;;;;;;4.00;99.90;;;;;;5054798;28;19921;-60
2022/03/01 07:15:41;;;;;;;;;;;4.00;99.90;;;;;;5065458;28;19981;-61
2022/03/01 07:18:07;;;;;;;;;;;4.00;99.90;;;;;;5074485;28;19920;-61
2022/03/01 07:20:35;;;;;;;;;;;4.10;99.90;;;;;;5074407;28;20290;-60
2022/03/01 07:23:02;;;;;;;;;;;4.00;99.90;;;;;;5073918;28;20007;-60
2022/03/01 07:25:28;;;;;;;;;;;4.10;99.90;;;;;;5073290;28;20502;-61
2022/03/01 07:27:55;;;;;;;;;;;4.10;99.90;;;;;;5073387;28;19928;-64
2022/03/01 07:30:25;;;;;;;;;;;4.10;99.90;;;;;;5073486;28;19920;-62
2022/03/01 07:32:52;;;;;;;;;;;4.10;99.90;;;;;;5074008;28;19930;-62
2022/03/01 07:35:19;;;;;;;;;;;4.10;99.90;;;;;;5073109;28;19969;-64
2022/03/01 07:37:46;;;;;;;;;;;4.10;99.90;;;;;;5073789;28;19953;-63
2022/03/01 07:40:14;;;;;;;;;;;4.10;99.90;;;;;;5073469;28;19924;-62
2022/03/01 07:42:41;;;;;;;;;;;4.10;99.90;;;;;;5074116;28;19928;-61
2022/03/01 07:45:08;;;;;;;;;;;4.20;99.90;;;;;;5072742;28;19982;-61
2022/03/01 07:47:36;;;;;;;;;;;4.20;99.90;;;;;;5073283;28;19927;-57
2022/03/01 07:50:03;;;;;;;;;;;4.20;99.90;;;;;;5073645;28;19926;-56
2022/03/01 07:52:30;;;;;;;;;;;4.20;99.90;;;;;;5073575;28;19920;-57
2022/03/01 07:54:57;;;;;;;;;;;4.20;99.90;;;;;;5073532;28;19966;-56
2022/03/01 07:57:23;;;;;;;;;;;4.20;99.90;;;;;;5074337;28;19924;-57
2022/03/01 07:59:50;;;;;;;;;;;4.40;99.90;;;;;;5074054;28;20340;-61
2022/03/01 08:02:16;;;;;;;;;;;4.40;99.90;;;;;;5074557;28;19978;-62
2022/03/01 08:04:45;;;;;;;;;;;4.50;99.90;;;;;;5074821;28;19924;-61
2022/03/01 08:07:11;;;;;;;;;;;4.60;99.90;;;;;;5076080;28;19920;-62
2022/03/01 08:09:38;;;;;;;;;;;4.70;99.90;;;;;;5074384;28;19973;-61
2022/03/01 08:12:06;;;;;;;;;;;4.80;99.90;;;;;;5073867;28;19978;-59
2022/03/01 08:14:33;;;;;;;;;;;4.90;99.90;;;;;;5073433;28;19979;-60
2022/03/01 08:17:02;;;;;;;;;;;5.10;99.90;;;;;;5073925;28;19920;-65
2022/03/01 08:19:28;;;;;;;;;;;5.30;99.90;;;;;;5072632;28;19982;-64
2022/03/01 08:21:56;;;;;;;;;;;5.40;99.90;;;;;;5072735;28;20369;-66
2022/03/01 08:24:23;;;;;;;;;;;5.50;99.90;;;;;;5072821;28;19924;-65
2022/03/01 08:26:50;;;;;;;;;;;5.70;99.90;;;;;;5072301;28;19986;-64
2022/03/01 08:29:16;;;;;;;;;;;5.80;99.90;;;;;;5072998;28;20003;-67
2022/03/01 08:31:43;;;;;;;;;;;5.80;99.90;;;;;;5073116;28;19966;-65
2022/03/01 08:34:09;;;;;;;;;;;5.70;99.90;;;;;;5072405;28;19924;-65
2022/03/01 08:36:36;;;;;;;;;;;5.80;99.90;;;;;;5072354;28;19965;-64
2022/03/01 08:39:04;;;;;;;;;;;5.70;99.90;;;;;;5072479;28;19920;-61
2022/03/01 08:41:31;;;;;;;;;;;5.80;99.90;;;;;;5072270;28;19924;-64
2022/03/01 08:43:58;;;;;;;;;;;5.80;99.90;;;;;;5072211;28;19924;-62
2022/03/01 08:46:24;;;;;;;;;;;5.80;99.90;;;;;;5071747;28;19946;-62
2022/03/01 08:48:53;;;;;;;;;;;5.90;99.90;;;;;;5072600;28;20003;-62
2022/03/01 08:51:20;;;;;;;;;;;6.10;99.90;;;;;;5072030;28;19924;-62
2022/03/01 08:53:47;;;;;;;;;;;6.20;99.90;;;;;;5072054;28;19924;-61
2022/03/01 08:56:15;;;;;;;;;;;6.10;99.90;;;;;;5071124;28;20241;-62
2022/03/01 08:58:42;;;;;;;;;;;6.10;99.90;;;;;;5072052;28;19920;-62
2022/03/01 09:01:09;;;;;;;;;;;6.20;99.90;;;;;;5072211;28;20521;-64
2022/03/01 09:03:36;;;;;;;;;;;6.30;99.90;;;;;;5071992;28;19920;-64
2022/03/01 09:06:04;;;;;;;;;;;6.50;99.90;;;;;;5071506;28;20422;-63
2022/03/01 09:08:32;;;;;;;;;;;6.60;99.90;;;;;;5071798;28;19921;-62
2022/03/01 09:10:58;;;;;;;;;;;6.70;99.90;;;;;;5071955;28;19928;-59
2022/03/01 09:13:26;;;;;;;;;;;6.70;99.90;;;;;;5071982;28;20272;-59
2022/03/01 09:15:53;;;;;;;;;;;6.80;99.90;;;;;;5071148;28;19920;-58
2022/03/01 09:18:21;;;;;;;;;;;6.80;99.90;;;;;;5071380;28;19989;-62
2022/03/01 09:20:47;;;;;;;;;;;6.80;99.90;;;;;;5071459;28;19920;-61
2022/03/01 09:23:14;;;;;;;;;;;6.80;99.90;;;;;;5071577;28;19966;-61
2022/03/01 09:25:41;;;;;;;;;;;6.90;99.90;;;;;;5071160;28;19921;-62
2022/03/01 09:28:07;;;;;;;;;;;7.00;99.90;;;;;;5071798;28;19946;-63
2022/03/01 09:30:35;;;;;;;;;;;7.10;99.90;;;;;;5071789;28;19997;-60
2022/03/01 09:33:02;;;;;;;;;;;7.10;99.90;;;;;;5072538;28;20382;-59
2022/03/01 09:35:29;;;;;;;;;;;7.20;99.90;;;;;;5071205;28;19969;-64
2022/03/01 09:37:55;;;;;;;;;;;7.20;99.90;;;;;;5070879;28;19970;-60
2022/03/01 09:40:22;;;;;;;;;;;7.30;99.90;;;;;;5071514;28;19978;-60
2022/03/01 09:42:51;;;;;;;;;;;7.40;99.90;;;;;;5071475;28;20274;-58
2022/03/01 09:45:18;;;;;;;;;;;7.50;99.90;;;;;;5070972;28;20517;-60
2022/03/01 09:47:46;;;;;;;;;;;7.60;99.90;;;;;;5071669;28;19947;-61
2022/03/01 09:50:13;;;;;;;;;;;7.50;99.90;;;;;;5070741;28;19920;-60
2022/03/01 09:52:40;;;;;;;;;;;7.60;99.90;;;;;;5061789;28;19924;-61
2022/03/01 09:55:07;;;;;;;;;;;7.50;99.90;;;;;;5050892;28;19973;-61
2022/03/01 09:57:34;;;;;;;;;;;7.50;99.90;;;;;;5056214;28;19974;-61
2022/03/01 10:00:00;;;;;;;;;;;7.60;99.90;;;;;;5071661;28;19924;-61
2022/03/01 10:02:33;;;;;;;;;;;7.50;99.90;;;;;;5071513;28;19920;-61
2022/03/01 10:05:01;;;;;;;;;;;7.50;99.90;;;;;;5071407;28;20045;-61
2022/03/01 10:07:29;;;;;;;;;;;7.60;99.90;;;;;;5057030;28;19928;-62
2022/03/01 10:10:03;;;;;;;;;;;7.60;99.90;;;;;;5053686;28;19920;-58
2022/03/01 10:12:29;;;;;;;;;;;7.70;99.90;;;;;;5051432;28;19970;-57
2022/03/01 10:14:58;;;;;;;;;;;7.70;99.90;;;;;;5050690;28;19921;-64
2022/03/01 10:17:25;;;;;;;;;;;7.80;99.90;;;;;;5051151;28;20019;-65
2022/03/01 10:20:01;;;;;;;;;;;8.00;99.90;;;;;;5051228;28;19921;-64
2022/03/01 10:22:28;;;;;;;;;;;8.10;99.90;;;;;;5051552;28;20338;-64
2022/03/01 10:24:54;;;;;;;;;;;8.20;99.90;;;;;;5050837;28;19975;-61
2022/03/01 10:27:27;;;;;;;;;;;8.10;99.90;;;;;;5050782;28;19931;-60
2022/03/01 10:29:54;;;;;;;;;;;8.10;99.90;;;;;;5050401;28;20719;-62
2022/03/01 10:32:20;;;;;;;;;;;8.30;99.90;;;;;;5050550;28;19974;-61
2022/03/01 10:34:57;;;;;;;;;;;8.40;99.90;;;;;;5050668;28;19930;-61
2022/03/01 10:37:26;;;;;;;;;;;8.40;99.90;;;;;;5050617;28;20024;-61
2022/03/01 10:40:08;;;;;;;;;;;8.50;99.90;;;;;;5051448;28;20408;-65
2022/03/01 10:42:35;;;;;;;;;;;8.60;99.90;;;;;;5054763;28;20296;-61
2022/03/01 10:45:01;;;;;;;;;;;8.60;99.90;;;;;;5054948;28;19925;-60
2022/03/01 10:47:29;;;;;;;;;;;8.60;99.90;;;;;;5054923;28;19944;-61
2022/03/01 10:50:00;;;;;;;;;;;8.60;99.90;;;;;;5054712;28;20586;-63
2022/03/01 10:52:33;;;;;;;;;;;8.60;99.90;;;;;;5054818;28;19921;-62
2022/03/01 10:55:00;;;;;;;;;;;8.50;99.90;;;;;;5054273;28;20451;-61
2022/03/01 10:57:27;;;;;;;;;;;8.50;99.90;;;;;;5054677;28;20364;-56
2022/03/01 10:59:53;;;;;;;;;;;8.40;99.90;;;;;;5055451;28;19920;-62
2022/03/01 11:02:20;;;;;;;;;;;8.40;99.90;;;;;;5055245;28;19948;-63
2022/03/01 11:04:47;;;;;;;;;;;8.40;99.90;;;;;;5055353;28;19921;-56
2022/03/01 11:07:14;;;;;;;;;;;8.50;99.90;;;;;;5054423;28;19921;-61
2022/03/01 11:09:43;;;;;;;;;;;8.60;99.90;;;;;;5055598;28;19921;-62
2022/03/01 11:12:11;;;;;;;;;;;8.70;99.90;;;;;;5055015;28;19925;-61
2022/03/01 11:14:43;;;;;;;;;;;8.80;99.90;;;;;;5053981;28;19920;-59
2022/03/01 11:17:15;;;;;;;;;;;8.90;99.90;;;;;;5053961;28;19928;-60
2022/03/01 11:19:50;;;;;;;;;;;8.90;99.90;;;;;;5053810;28;19987;-63
2022/03/01 11:22:19;;;;;;;;;;;9.00;99.90;;;;;;5054416;28;19924;-62
2022/03/01 11:24:48;;;;;;;;;;;9.20;99.90;;;;;;5061593;28;19924;-63
2022/03/01 11:27:19;;;;;;;;;;;9.20;99.90;;;;;;5065909;28;19920;-63
2022/03/01 11:29:45;;;;;;;;;;;9.20;99.90;;;;;;5073789;28;19924;-57
2022/03/01 11:32:13;;;;;;;;;;;9.30;99.90;;;;;;5073819;28;19974;-55
2022/03/01 11:34:40;;;;;;;;;;;9.20;99.90;;;;;;5073915;28;19996;-58
2022/03/01 11:37:13;;;;;;;;;;;9.10;99.90;;;;;;5073997;28;20286;-59
2022/03/01 11:39:39;;;;;;;;;;;9.10;99.90;;;;;;5074350;28;19924;-59
2022/03/01 11:42:08;;;;;;;;;;;9.20;99.90;;;;;;5073609;28;19924;-57
2022/03/01 11:44:36;;;;;;;;;;;9.10;99.90;;;;;;5073009;28;19982;-60
2022/03/01 11:47:06;;;;;;;;;;;9.30;99.90;;;;;;5073879;28;19924;-57
2022/03/01 11:49:34;;;;;;;;;;;9.40;99.90;;;;;;5073615;28;20408;-59
2022/03/01 11:52:01;;;;;;;;;;;9.60;99.90;;;;;;5073511;28;20446;-62
2022/03/01 11:54:29;;;;;;;;;;;9.60;99.90;;;;;;5072787;28;19920;-61
2022/03/01 11:56:56;;;;;;;;;;;9.60;99.90;;;;;;5073898;28;19966;-62
2022/03/01 11:59:25;;;;;;;;;;;9.60;99.90;;;;;;5073155;28;20059;-61
2022/03/01 12:01:52;;;;;;;;;;;9.70;99.90;;;;;;5053766;28;19921;-62
2022/03/01 12:04:22;;;;;;;;;;;9.90;99.90;;;;;;5053348;28;19928;-63
2022/03/01 12:06:52;;;;;;;;;;;10.10;99.90;;;;;;5052756;28;19947;-61
2022/03/01 12:09:18;;;;;;;;;;;10.10;99.90;;;;;;5053382;28;19920;-60
2022/03/01 12:11:46;;;;;;;;;;;10.00;99.90;;;;;;5052911;28;20371;-61
2022/03/01 12:14:15;;;;;;;;;;;10.00;99.90;;;;;;5053230;28;19978;-62
2022/03/01 12:16:43;;;;;;;;;;;9.80;99.90;;;;;;5052228;28;20590;-59
2022/03/01 12:19:14;;;;;;;;;;;9.80;99.90;;;;;;5053080;28;19928;-61
2022/03/01 12:21:46;;;;;;;;;;;9.80;99.90;;;;;;5052760;28;19993;-62
2022/03/01 12:24:13;;;;;;;;;;;9.80;99.90;;;;;;5052484;28;19927;-62
2022/03/01 12:26:43;;;;;;;;;;;10.00;99.90;;;;;;5052678;28;20413;-60
2022/03/01 12:29:11;;;;;;;;;;;10.00;99.90;;;;;;5053136;28;19927;-61
2022/03/01 12:31:37;;;;;;;;;;;9.90;99.90;;;;;;5052916;28;20379;-61
2022/03/01 12:34:06;;;;;;;;;;;10.10;99.90;;;;;;5052292;28;19921;-63
2022/03/01 12:36:33;;;;;;;;;;;10.10;99.90;;;;;;5052679;28;19920;-65
2022/03/01 12:39:02;;;;;;;;;;;10.30;99.90;;;;;;5052684;28;19920;-65
2022/03/01 12:41:29;;;;;;;;;;;10.20;99.90;;;;;;5052547;28;19974;-66
2022/03/01 12:43:56;;;;;;;;;;;10.30;99.90;;;;;;5052790;28;19928;-65
2022/03/01 12:46:23;;;;;;;;;;;10.50;99.90;;;;;;5052421;28;19978;-64
2022/03/01 12:48:50;;;;;;;;;;;10.50;99.90;;;;;;5052850;28;20039;-64
2022/03/01 12:51:18;;;;;;;;;;;10.60;99.90;;;;;;5057906;28;19927;-62
2022/03/01 12:53:52;;;;;;;;;;;10.60;99.90;;;;;;5052348;28;19920;-65
2022/03/01 12:56:19;;;;;;;;;;;10.50;99.90;;;;;;5052179;28;19921;-63
2022/03/01 12:58:46;;;;;;;;;;;10.40;99.90;;;;;;5052632;28;20291;-60
2022/03/01 13:01:12;;;;;;;;;;;10.30;99.90;;;;;;5053127;28;19920;-61
2022/03/01 13:03:39;;;;;;;;;;;10.30;99.90;;;;;;5052448;28;19932;-61
2022/03/01 13:06:07;;;;;;;;;;;10.20;99.90;;;;;;5067656;28;19966;-61
2022/03/01 13:08:35;;;;;;;;;;;10.20;99.90;;;;;;5073252;28;20436;-62
2022/03/01 13:11:02;;;;;;;;;;;10.10;99.90;;;;;;5073334;28;20397;-69
2022/03/01 13:13:28;;;;;;;;;;;10.20;99.90;;;;;;5073927;28;20395;-67
2022/03/01 13:16:01;;;;;;;;;;;10.20;99.90;;;;;;5071401;28;20007;-65
2022/03/01 13:18:28;;;;;;;;;;;10.20;99.90;;;;;;5071889;28;19924;-62
2022/03/01 13:20:54;;;;;;;;;;;10.40;99.90;;;;;;5072144;28;19921;-64
2022/03/01 13:23:27;;;;;;;;;;;10.50;99.90;;;;;;5071753;28;19928;-62
2022/03/01 13:25:56;;;;;;;;;;;10.50;99.90;;;;;;5071634;28;19981;-63
2022/03/01 13:28:30;;;;;;;;;;;10.50;99.90;;;;;;5071502;28;20007;-60
2022/03/01 13:30:56;;;;;;;;;;;10.20;99.90;;;;;;5071913;28;19921;-61
2022/03/01 13:33:26;;;;;;;;;;;10.20;99.90;;;;;;5071060;28;20645;-60
2022/03/01 13:35:52;;;;;;;;;;;10.30;99.90;;;;;;5071625;28;19920;-65
2022/03/01 13:38:20;;;;;;;;;;;10.30;99.90;;;;;;5071940;28;20041;-63
2022/03/01 13:40:47;;;;;;;;;;;10.40;99.90;;;;;;5071328;28;20371;-63
2022/03/01 13:43:16;;;;;;;;;;;10.30;99.90;;;;;;5072057;28;20344;-62
2022/03/01 13:45:44;;;;;;;;;;;10.30;99.90;;;;;;5071747;28;19920;-61
2022/03/01 13:48:11;;;;;;;;;;;10.30;99.90;;;;;;5071803;28;20379;-62
2022/03/01 13:50:38;;;;;;;;;;;10.30;99.90;;;;;;5071948;28;20022;-60
2022/03/01 13:53:09;;;;;;;;;;;10.20;99.90;;;;;;5071815;28;19927;-61
2022/03/01 13:55:37;;;;;;;;;;;10.20;99.90;;;;;;5071730;28;20447;-60
2022/03/01 13:58:04;;;;;;;;;;;10.20;99.90;;;;;;5071409;28;19925;-60
2022/03/01 14:00:33;;;;;;;;;;;10.30;99.90;;;;;;5071669;28;19920;-61
2022/03/01 14:03:01;;;;;;;;;;;10.40;99.90;;;;;;5071100;28;19950;-60
2022/03/01 14:05:28;;;;;;;;;;;10.10;99.90;;;;;;5071224;28;19975;-60
2022/03/01 14:07:58;;;;;;;;;;;10.10;99.90;;;;;;5071934;28;19974;-63
2022/03/01 14:10:25;;;;;;;;;;;10.20;99.90;;;;;;5071348;28;19974;-65
2022/03/01 14:13:00;;;;;;;;;;;10.30;99.90;;;;;;5071723;28;20289;-60
2022/03/01 14:15:33;;;;;;;;;;;10.40;99.90;;;;;;5071188;28;19973;-62
2022/03/01 14:17:59;;;;;;;;;;;10.50;99.90;;;;;;5075944;28;19963;-62
2022/03/01 14:20:27;;;;;;;;;;;10.50;99.90;;;;;;5067184;28;19970;-62
2022/03/01 14:22:53;;;;;;;;;;;10.40;99.90;;;;;;5056256;28;19974;-61
2022/03/01 14:25:20;;;;;;;;;;;10.50;99.90;;;;;;5055197;28;19971;-61
2022/03/01 14:27:47;;;;;;;;;;;10.50;99.90;;;;;;5054761;28;19967;-63
2022/03/01 14:30:13;;;;;;;;;;;10.60;99.90;;;;;;5055450;28;19967;-61